createdAt,value
2023-05-09T00:01:05.831Z,3.72
2023-05-09T00:03:34.284Z,3.78
2023-05-09T00:06:02.625Z,3.77
2023-05-09T00:08:30.771Z,3.79
2023-05-09T00:10:58.928Z,3.83
2023-05-09T00:13:27.305Z,3.87
2023-05-09T00:15:57.340Z,3.87
2023-05-09T00:18:25.517Z,3.86
2023-05-09T00:20:53.576Z,3.85
2023-05-09T00:23:21.672Z,3.83
2023-05-09T00:25:49.784Z,3.80
2023-05-09T00:28:17.877Z,3.76
2023-05-09T00:30:45.997Z,3.74
2023-05-09T00:33:14.183Z,3.74
2023-05-09T00:35:42.462Z,3.79
2023-05-09T00:38:10.614Z,3.85
2023-05-09T00:40:39.063Z,3.83
2023-05-09T00:43:07.634Z,3.76
2023-05-09T00:45:35.779Z,3.73
2023-05-09T00:48:04.359Z,3.70
2023-05-09T00:50:32.518Z,3.66
2023-05-09T00:53:01.050Z,3.65
2023-05-09T00:55:29.240Z,3.64
2023-05-09T00:57:57.389Z,3.61
2023-05-09T01:00:25.553Z,3.58
2023-05-09T01:02:55.229Z,3.58
2023-05-09T01:05:27.237Z,3.62
2023-05-09T01:08:01.631Z,3.66
2023-05-09T01:10:48.581Z,3.70
2023-05-09T01:13:48.990Z,3.78
2023-05-09T01:16:24.105Z,3.81
2023-05-09T01:19:01.314Z,3.80
2023-05-09T01:21:30.606Z,3.81
2023-05-09T01:24:17.331Z,3.84
2023-05-09T01:26:53.221Z,3.83
2023-05-09T01:29:27.250Z,3.80
2023-05-09T01:31:56.752Z,3.77
2023-05-09T01:34:26.897Z,3.74
2023-05-09T01:36:58.184Z,3.70
2023-05-09T01:39:27.613Z,3.71
2023-05-09T01:41:57.062Z,3.73
2023-05-09T01:44:25.713Z,3.77
2023-05-09T01:46:56.405Z,3.85
2023-05-09T01:49:25.371Z,3.86
2023-05-09T01:51:54.726Z,3.87
2023-05-09T01:54:26.324Z,3.82
2023-05-09T01:56:55.774Z,3.74
2023-05-09T01:59:24.027Z,3.71
2023-05-09T02:01:53.136Z,3.70
2023-05-09T02:04:22.201Z,3.67
2023-05-09T02:06:51.527Z,3.63
2023-05-09T02:09:20.324Z,3.60
2023-05-09T02:11:48.657Z,3.57
2023-05-09T02:14:16.748Z,3.53
2023-05-09T02:16:44.914Z,3.47
2023-05-09T02:19:13.051Z,3.43
2023-05-09T02:21:41.421Z,3.43
2023-05-09T02:24:09.691Z,3.48
2023-05-09T02:26:38.231Z,3.55
2023-05-09T02:29:07.545Z,3.67
2023-05-09T02:31:36.327Z,3.76
2023-05-09T02:34:05.646Z,3.85
2023-05-09T02:36:35.952Z,3.92
2023-05-09T02:39:04.231Z,3.97
2023-05-09T02:41:32.539Z,3.99
2023-05-09T02:44:00.645Z,3.99
2023-05-09T02:46:28.939Z,3.96
2023-05-09T02:48:57.087Z,3.92
2023-05-09T02:51:25.233Z,3.88
2023-05-09T02:53:53.333Z,3.84
2023-05-09T02:56:21.445Z,3.82
2023-05-09T02:58:51.515Z,3.82
2023-05-09T03:01:19.846Z,3.87
2023-05-09T03:03:48.037Z,3.91
2023-05-09T03:06:16.787Z,4.00
2023-05-09T03:08:44.870Z,4.05
2023-05-09T03:11:13.858Z,4.04
2023-05-09T03:13:42.643Z,3.99
2023-05-09T03:16:13.497Z,3.98
2023-05-09T03:18:42.537Z,3.98
2023-05-09T03:21:10.845Z,3.99
2023-05-09T03:23:39.652Z,3.99
2023-05-09T03:26:07.771Z,3.97
2023-05-09T03:28:37.860Z,3.92
2023-05-09T03:31:06.582Z,3.91
2023-05-09T03:33:34.921Z,3.93
2023-05-09T03:36:03.010Z,3.97
2023-05-09T03:38:31.087Z,3.96
2023-05-09T03:40:59.425Z,3.95
2023-05-09T03:43:27.682Z,3.97
2023-05-09T03:45:56.192Z,3.96
2023-05-09T03:48:24.673Z,3.96
2023-05-09T03:50:52.973Z,3.99
2023-05-09T03:53:21.551Z,4.00
2023-05-09T03:55:49.664Z,3.95
2023-05-09T03:58:19.476Z,3.86
2023-05-09T04:00:48.042Z,3.82
2023-05-09T04:03:18.428Z,3.83
2023-05-09T04:05:48.135Z,3.83
2023-05-09T04:08:25.376Z,3.82
2023-05-09T04:10:53.570Z,3.87
2023-05-09T04:13:21.908Z,4.01
2023-05-09T04:15:50.204Z,4.20
2023-05-09T04:18:18.470Z,4.43
2023-05-09T04:20:46.817Z,4.65
2023-05-09T04:23:15.503Z,4.86
2023-05-09T04:25:43.944Z,5.07
2023-05-09T04:28:12.068Z,5.24
2023-05-09T04:30:40.565Z,5.35
2023-05-09T04:33:08.763Z,5.48
2023-05-09T04:35:36.968Z,5.57
2023-05-09T04:38:05.134Z,5.55
2023-05-09T04:40:33.528Z,5.51
2023-05-09T04:43:01.907Z,5.46
2023-05-09T04:45:32.005Z,5.41
2023-05-09T04:48:00.926Z,5.37
2023-05-09T04:50:30.428Z,5.36
2023-05-09T04:52:58.472Z,5.29
2023-05-09T04:55:26.546Z,5.25
2023-05-09T04:57:56.387Z,5.25
2023-05-09T05:00:25.006Z,5.24
2023-05-09T05:02:53.187Z,5.24
2023-05-09T05:05:24.926Z,5.18
2023-05-09T05:07:54.390Z,5.20
2023-05-09T05:10:28.410Z,5.22
2023-05-09T05:13:02.901Z,5.23
2023-05-09T05:15:31.377Z,5.23
2023-05-09T05:17:59.667Z,5.30
2023-05-09T05:20:30.999Z,5.39
2023-05-09T05:22:59.948Z,5.52
2023-05-09T05:25:28.015Z,5.64
2023-05-09T05:27:56.667Z,5.73
2023-05-09T05:30:24.797Z,5.80
2023-05-09T05:32:52.973Z,5.87
2023-05-09T05:35:23.490Z,5.92
2023-05-09T05:37:51.787Z,5.96
2023-05-09T05:40:21.185Z,5.97
2023-05-09T05:42:49.691Z,5.89
2023-05-09T05:45:17.942Z,5.83
2023-05-09T05:47:49.181Z,5.77
2023-05-09T05:50:18.195Z,5.71
2023-05-09T05:52:46.344Z,5.63
2023-05-09T05:55:16.010Z,5.55
2023-05-09T05:57:44.541Z,5.56
2023-05-09T06:00:15.458Z,5.58
2023-05-09T06:02:48.542Z,5.65
2023-05-09T06:05:22.834Z,5.66
2023-05-09T06:07:51.610Z,5.75
2023-05-09T06:10:21.702Z,5.74
2023-05-09T06:12:50.072Z,5.79
2023-05-09T06:15:18.404Z,5.85
2023-05-09T06:17:48.020Z,5.92
2023-05-09T06:20:16.084Z,5.98
2023-05-09T06:22:45.140Z,6.02
2023-05-09T06:25:13.577Z,6.04
2023-05-09T06:27:42.157Z,6.06
2023-05-09T06:30:24.725Z,6.02
2023-05-09T06:32:55.669Z,5.97
2023-05-09T06:35:23.905Z,5.96
2023-05-09T06:37:51.962Z,5.93
2023-05-09T06:40:20.181Z,5.94
2023-05-09T06:42:48.315Z,5.94
2023-05-09T06:45:17.478Z,5.89
2023-05-09T06:47:45.970Z,5.87
2023-05-09T06:50:14.162Z,5.91
2023-05-09T06:52:42.238Z,5.91
2023-05-09T06:55:10.941Z,6.01
2023-05-09T06:57:40.686Z,6.12
2023-05-09T07:00:10.907Z,6.23
2023-05-09T07:02:42.426Z,6.30
2023-05-09T07:05:11.248Z,6.33
2023-05-09T07:07:39.507Z,6.43
2023-05-09T07:10:11.962Z,6.49
2023-05-09T07:12:40.946Z,6.56
2023-05-09T07:15:09.466Z,6.65
2023-05-09T07:17:37.594Z,6.70
2023-05-09T07:20:06.288Z,6.79
2023-05-09T07:22:36.955Z,6.94
2023-05-09T07:25:08.985Z,7.06
2023-05-09T07:27:37.439Z,7.24
2023-05-09T07:30:06.219Z,7.43
2023-05-09T07:32:34.386Z,7.47
2023-05-09T07:35:03.248Z,7.46
2023-05-09T07:37:31.867Z,7.60
2023-05-09T07:40:00.503Z,7.55
2023-05-09T07:42:30.398Z,7.64
2023-05-09T07:44:59.324Z,7.66
2023-05-09T07:47:27.426Z,7.63
2023-05-09T07:49:55.564Z,7.70
2023-05-09T07:52:23.693Z,7.67
2023-05-09T07:54:51.802Z,7.63
2023-05-09T07:57:19.903Z,7.62
2023-05-09T07:59:47.929Z,7.75
2023-05-09T08:02:16.146Z,7.87
2023-05-09T08:04:44.527Z,8.01
2023-05-09T08:07:12.659Z,7.96
2023-05-09T08:09:40.855Z,7.80
2023-05-09T08:12:08.931Z,7.79
2023-05-09T08:14:36.933Z,7.65
2023-05-09T08:17:05.020Z,7.63
2023-05-09T08:19:33.210Z,7.65
2023-05-09T08:22:01.420Z,7.60
2023-05-09T08:24:29.595Z,7.61
2023-05-09T08:26:57.655Z,7.68
2023-05-09T08:29:25.752Z,7.63
2023-05-09T08:31:53.879Z,7.62
2023-05-09T08:34:22.023Z,7.66
2023-05-09T08:36:50.221Z,7.70
2023-05-09T08:39:19.410Z,7.72
2023-05-09T08:41:47.638Z,7.69
2023-05-09T08:44:15.818Z,7.74
2023-05-09T08:46:44.667Z,7.75
2023-05-09T08:49:12.826Z,7.73
2023-05-09T08:51:41.105Z,7.79
2023-05-09T08:54:09.786Z,7.80
2023-05-09T08:56:37.910Z,7.70
2023-05-09T08:59:06.519Z,7.70
2023-05-09T09:01:37.877Z,7.55
2023-05-09T09:04:06.920Z,7.53
2023-05-09T09:06:35.520Z,7.69
2023-05-09T09:09:09.200Z,7.73
2023-05-09T09:11:38.871Z,7.72
2023-05-09T09:14:15.755Z,7.86
2023-05-09T09:16:45.156Z,8.07
2023-05-09T09:19:16.820Z,8.33
2023-05-09T09:21:47.308Z,8.37
2023-05-09T09:24:19.113Z,8.22
2023-05-09T09:26:48.411Z,8.13
2023-05-09T09:29:17.367Z,8.15
2023-05-09T09:31:46.514Z,8.26
2023-05-09T09:34:21.526Z,8.26
2023-05-09T09:36:50.378Z,8.28
2023-05-09T09:39:18.535Z,8.20
2023-05-09T09:41:46.609Z,8.12
2023-05-09T09:44:18.845Z,8.02
2023-05-09T09:46:50.890Z,8.17
2023-05-09T09:49:20.661Z,8.33
2023-05-09T09:51:56.237Z,8.59
2023-05-09T09:54:27.833Z,8.84
2023-05-09T09:56:57.170Z,8.96
2023-05-09T09:59:26.203Z,8.99
2023-05-09T10:02:07.679Z,8.85
2023-05-09T10:04:37.378Z,9.02
2023-05-09T10:07:07.416Z,9.06
2023-05-09T10:09:38.039Z,9.13
2023-05-09T10:12:06.954Z,8.99
2023-05-09T10:14:36.705Z,9.32
2023-05-09T10:17:05.722Z,9.85
2023-05-09T10:19:36.212Z,10.14
2023-05-09T10:22:10.177Z,10.39
2023-05-09T10:24:44.697Z,10.47
2023-05-09T10:27:13.393Z,10.44
2023-05-09T10:29:46.115Z,10.26
2023-05-09T10:32:40.542Z,9.90
2023-05-09T10:35:10.651Z,9.48
2023-05-09T10:37:39.055Z,9.50
2023-05-09T10:40:08.005Z,9.57
2023-05-09T10:42:36.278Z,9.56
2023-05-09T10:45:04.649Z,9.67
2023-05-09T10:47:33.381Z,9.63
2023-05-09T10:50:02.120Z,9.61
2023-05-09T10:52:36.043Z,9.47
2023-05-09T10:55:05.220Z,9.37
2023-05-09T10:57:33.436Z,9.25
2023-05-09T11:00:01.637Z,9.09
2023-05-09T11:02:31.379Z,9.03
2023-05-09T11:05:16.725Z,8.98
2023-05-09T11:07:45.170Z,8.98
2023-05-09T11:10:20.215Z,8.99
2023-05-09T11:12:57.728Z,9.04
2023-05-09T11:15:27.973Z,9.04
2023-05-09T11:18:10.719Z,8.93
2023-05-09T11:20:46.873Z,8.80
2023-05-09T11:23:21.930Z,8.72
2023-05-09T11:25:50.086Z,8.69
2023-05-09T11:28:28.445Z,8.52
2023-05-09T11:31:12.952Z,8.48
2023-05-09T11:33:42.257Z,8.40
2023-05-09T11:36:20.584Z,8.42
2023-05-09T11:38:48.776Z,8.38
2023-05-09T11:41:17.556Z,8.52
2023-05-09T11:43:45.770Z,8.63
2023-05-09T11:46:13.983Z,8.80
2023-05-09T11:48:42.400Z,8.87
2023-05-09T11:51:18.353Z,9.00
2023-05-09T11:53:49.828Z,9.15
2023-05-09T11:56:18.149Z,9.08
2023-05-09T11:58:46.949Z,9.19
2023-05-09T12:01:15.105Z,9.22
2023-05-09T12:03:46.206Z,9.09
2023-05-09T12:06:15.531Z,9.03
2023-05-09T12:08:44.255Z,8.99
2023-05-09T12:11:12.836Z,9.03
2023-05-09T12:13:50.951Z,9.04
2023-05-09T12:16:20.002Z,8.96
2023-05-09T12:18:52.718Z,8.86
2023-05-09T12:21:21.918Z,8.79
2023-05-09T12:23:51.662Z,8.77
2023-05-09T12:26:22.256Z,8.69
2023-05-09T12:28:50.856Z,8.65
2023-05-09T12:31:19.319Z,8.64
2023-05-09T12:33:47.465Z,8.58
2023-05-09T12:36:16.349Z,8.47
2023-05-09T12:38:54.466Z,8.42
2023-05-09T12:41:36.987Z,8.39
2023-05-09T12:44:07.899Z,8.26
2023-05-09T12:46:37.534Z,8.26
2023-05-09T12:49:06.026Z,8.21
2023-05-09T12:51:34.288Z,8.13
2023-05-09T12:54:05.430Z,8.04
2023-05-09T12:56:34.042Z,8.08
2023-05-09T12:59:02.117Z,8.01
2023-05-09T13:01:30.383Z,7.93
2023-05-09T13:04:02.875Z,8.09
2023-05-09T13:06:31.265Z,8.24
2023-05-09T13:09:00.555Z,8.19
2023-05-09T13:11:29.334Z,8.23
2023-05-09T13:13:57.853Z,8.32
2023-05-09T13:16:25.992Z,8.40
2023-05-09T13:18:54.164Z,8.35
2023-05-09T13:21:22.225Z,8.27
2023-05-09T13:23:51.329Z,8.30
2023-05-09T13:26:19.533Z,8.34
2023-05-09T13:28:47.696Z,8.42
2023-05-09T13:31:15.973Z,8.38
2023-05-09T13:33:44.230Z,8.35
2023-05-09T13:36:12.242Z,8.40
2023-05-09T13:38:40.968Z,8.34
2023-05-09T13:41:09.913Z,8.44
2023-05-09T13:43:39.681Z,8.39
2023-05-09T13:46:07.873Z,8.45
2023-05-09T13:48:36.028Z,8.52
2023-05-09T13:51:06.381Z,8.42
2023-05-09T13:53:35.778Z,8.44
2023-05-09T13:56:06.482Z,8.53
2023-05-09T13:58:34.596Z,8.63
2023-05-09T14:01:02.945Z,8.63
2023-05-09T14:03:31.999Z,8.69
2023-05-09T14:06:00.174Z,8.77
2023-05-09T14:08:28.319Z,8.80
2023-05-09T14:10:56.525Z,8.92
2023-05-09T14:13:25.376Z,8.88
2023-05-09T14:15:53.865Z,8.88
2023-05-09T14:18:21.907Z,8.85
2023-05-09T14:20:50.373Z,8.79
2023-05-09T14:23:18.943Z,8.75
2023-05-09T14:25:47.064Z,8.68
2023-05-09T14:28:15.242Z,8.69
2023-05-09T14:30:43.854Z,8.73
2023-05-09T14:33:12.039Z,8.74
2023-05-09T14:35:41.621Z,8.55
2023-05-09T14:38:10.105Z,8.58
2023-05-09T14:40:38.220Z,8.62
2023-05-09T14:43:06.360Z,8.62
2023-05-09T14:45:34.479Z,8.64
2023-05-09T14:48:03.689Z,8.67
2023-05-09T14:50:31.887Z,8.83
2023-05-09T14:53:01.085Z,9.11
2023-05-09T14:55:31.353Z,9.37
2023-05-09T14:57:59.644Z,9.51
2023-05-09T15:00:28.846Z,9.73
2023-05-09T15:02:57.928Z,10.00
2023-05-09T15:05:26.200Z,10.20
2023-05-09T15:07:54.271Z,10.32
2023-05-09T15:10:22.440Z,10.20
2023-05-09T15:12:50.642Z,10.17
2023-05-09T15:15:20.109Z,9.89
2023-05-09T15:17:48.276Z,9.68
2023-05-09T15:20:19.988Z,9.62
2023-05-09T15:22:49.778Z,9.30
2023-05-09T15:25:18.117Z,9.19
2023-05-09T15:27:46.268Z,9.09
2023-05-09T15:30:14.726Z,9.04
2023-05-09T15:32:43.250Z,8.93
2023-05-09T15:35:11.437Z,8.86
2023-05-09T15:37:40.587Z,8.81
2023-05-09T15:40:09.341Z,8.77
2023-05-09T15:42:37.786Z,8.68
2023-05-09T15:45:06.659Z,8.57
2023-05-09T15:47:34.942Z,8.39
2023-05-09T15:50:03.326Z,8.28
2023-05-09T15:52:31.565Z,8.08
2023-05-09T15:54:59.836Z,7.77
2023-05-09T15:57:28.002Z,7.63
2023-05-09T15:59:56.184Z,7.50
2023-05-09T16:02:24.908Z,7.40
2023-05-09T16:04:53.214Z,7.29
2023-05-09T16:07:21.297Z,6.98
2023-05-09T16:09:49.475Z,6.72
2023-05-09T16:12:17.641Z,6.60
2023-05-09T16:14:45.691Z,6.44
2023-05-09T16:17:13.797Z,6.33
2023-05-09T16:19:42.513Z,6.18
2023-05-09T16:22:10.656Z,5.96
2023-05-09T16:24:38.711Z,5.82
2023-05-09T16:27:06.898Z,5.76
2023-05-09T16:29:35.086Z,5.67
2023-05-09T16:32:03.354Z,5.57
2023-05-09T16:34:31.953Z,5.51
2023-05-09T16:37:00.605Z,5.56
2023-05-09T16:39:28.801Z,5.54
2023-05-09T16:41:57.387Z,5.51
2023-05-09T16:44:25.958Z,5.43
2023-05-09T16:46:54.040Z,5.36
2023-05-09T16:49:22.144Z,5.33
2023-05-09T16:51:50.391Z,5.29
2023-05-09T16:54:18.545Z,5.25
2023-05-09T16:56:46.630Z,5.22
2023-05-09T16:59:14.736Z,5.11
2023-05-09T17:01:43.438Z,5.05
2023-05-09T17:04:11.557Z,5.02
2023-05-09T17:06:40.231Z,4.99
2023-05-09T17:09:08.545Z,4.93
2023-05-09T17:11:36.751Z,4.85
2023-05-09T17:14:04.837Z,4.77
2023-05-09T17:16:33.427Z,4.73
2023-05-09T17:19:02.395Z,4.71
2023-05-09T17:21:30.926Z,4.70
2023-05-09T17:23:59.085Z,4.66
2023-05-09T17:26:27.247Z,4.57
2023-05-09T17:28:55.476Z,4.58
2023-05-09T17:31:23.833Z,4.52
2023-05-09T17:33:51.997Z,4.50
2023-05-09T17:36:20.100Z,4.47
2023-05-09T17:38:48.164Z,4.42
2023-05-09T17:41:16.283Z,4.41
2023-05-09T17:43:44.510Z,4.43
2023-05-09T17:46:14.864Z,4.43
2023-05-09T17:48:43.135Z,4.47
2023-05-09T17:51:11.445Z,4.51
2023-05-09T17:53:39.640Z,4.51
2023-05-09T17:56:08.408Z,4.53
2023-05-09T17:58:36.763Z,4.54
2023-05-09T18:01:05.579Z,4.54
2023-05-09T18:03:34.100Z,4.54
2023-05-09T18:06:02.300Z,4.53
2023-05-09T18:08:30.454Z,4.52
2023-05-09T18:10:58.625Z,4.52
2023-05-09T18:13:26.935Z,4.49
2023-05-09T18:16:00.745Z,4.45
2023-05-09T18:18:29.270Z,4.40
2023-05-09T18:20:57.601Z,4.36
2023-05-09T18:23:26.180Z,4.35
2023-05-09T18:25:54.615Z,4.32
2023-05-09T18:28:26.056Z,4.28
2023-05-09T18:30:54.763Z,4.25
2023-05-09T18:33:23.532Z,4.24
2023-05-09T18:35:53.185Z,4.22
2023-05-09T18:38:21.820Z,4.16
2023-05-09T18:40:52.272Z,4.13
2023-05-09T18:43:21.671Z,4.11
2023-05-09T18:45:50.207Z,4.07
2023-05-09T18:48:18.352Z,4.06
2023-05-09T18:50:47.350Z,4.03
2023-05-09T18:53:15.562Z,4.00
2023-05-09T18:55:43.906Z,3.96
2023-05-09T18:58:12.551Z,3.93
2023-05-09T19:00:40.760Z,3.91
2023-05-09T19:03:08.926Z,3.92
2023-05-09T19:05:37.142Z,3.96
2023-05-09T19:08:05.464Z,4.00
2023-05-09T19:10:35.936Z,4.05
2023-05-09T19:13:04.744Z,4.09
2023-05-09T19:15:33.518Z,4.12
2023-05-09T19:18:02.126Z,4.18
2023-05-09T19:20:30.798Z,4.18
2023-05-09T19:22:59.354Z,4.18
2023-05-09T19:25:27.862Z,4.15
2023-05-09T19:27:56.244Z,4.11
2023-05-09T19:30:24.394Z,4.08
2023-05-09T19:32:52.808Z,4.03
2023-05-09T19:35:21.054Z,3.99
2023-05-09T19:37:49.056Z,3.94
2023-05-09T19:40:17.400Z,3.85
2023-05-09T19:42:45.720Z,3.78
2023-05-09T19:45:14.442Z,3.73
2023-05-09T19:47:42.837Z,3.66
2023-05-09T19:50:11.143Z,3.57
2023-05-09T19:52:39.347Z,3.50
2023-05-09T19:55:07.699Z,3.47
2023-05-09T19:57:35.878Z,3.50
2023-05-09T20:00:06.525Z,3.54
2023-05-09T20:02:34.961Z,3.58
2023-05-09T20:05:03.751Z,3.63
2023-05-09T20:07:32.013Z,3.67
2023-05-09T20:10:00.034Z,3.71
2023-05-09T20:12:30.068Z,3.71
2023-05-09T20:14:58.446Z,3.70
2023-05-09T20:17:26.680Z,3.67
2023-05-09T20:19:54.722Z,3.62
2023-05-09T20:22:22.887Z,3.60
2023-05-09T20:24:51.233Z,3.56
2023-05-09T20:27:19.291Z,3.53
2023-05-09T20:29:47.554Z,3.48
2023-05-09T20:32:15.812Z,3.45
2023-05-09T20:34:43.888Z,3.39
2023-05-09T20:37:12.066Z,3.35
2023-05-09T20:39:40.128Z,3.29
2023-05-09T20:42:08.198Z,3.23
2023-05-09T20:44:37.715Z,3.16
2023-05-09T20:47:06.038Z,3.09
2023-05-09T20:49:34.248Z,3.01
2023-05-09T20:52:02.326Z,2.93
2023-05-09T20:54:31.112Z,2.84
2023-05-09T20:56:59.238Z,2.78
2023-05-09T20:59:27.397Z,2.70
2023-05-09T21:01:58.261Z,2.64
2023-05-09T21:04:26.448Z,2.60
2023-05-09T21:06:54.520Z,2.58
2023-05-09T21:09:22.569Z,2.56
2023-05-09T21:11:50.691Z,2.56
2023-05-09T21:14:18.821Z,2.55
2023-05-09T21:16:47.019Z,2.55
2023-05-09T21:19:15.156Z,2.52
2023-05-09T21:21:43.266Z,2.46
2023-05-09T21:24:11.390Z,2.39
2023-05-09T21:26:39.499Z,2.31
2023-05-09T21:29:07.758Z,2.22
2023-05-09T21:31:35.913Z,2.10
2023-05-09T21:34:09.861Z,2.00
2023-05-09T21:36:38.685Z,1.88
2023-05-09T21:39:09.613Z,1.76
2023-05-09T21:41:38.614Z,1.65
2023-05-09T21:44:11.427Z,1.56
2023-05-09T21:46:39.614Z,1.46
2023-05-09T21:49:07.747Z,1.38
2023-05-09T21:51:35.749Z,1.33
2023-05-09T21:54:04.012Z,1.28
2023-05-09T21:56:32.081Z,1.26
2023-05-09T21:59:00.148Z,1.23
2023-05-09T22:01:28.352Z,1.20
2023-05-09T22:03:56.538Z,1.20
2023-05-09T22:06:24.739Z,1.21
2023-05-09T22:08:52.899Z,1.20
2023-05-09T22:11:22.291Z,1.18
2023-05-09T22:13:50.697Z,1.12
2023-05-09T22:16:18.747Z,1.06
2023-05-09T22:18:46.823Z,1.00
2023-05-09T22:21:14.983Z,0.92
2023-05-09T22:23:43.761Z,0.83
2023-05-09T22:26:11.929Z,0.73
2023-05-09T22:28:40.100Z,0.66
2023-05-09T22:31:08.222Z,0.59
2023-05-09T22:33:36.433Z,0.53
2023-05-09T22:36:04.928Z,0.48
2023-05-09T22:38:33.158Z,0.44
2023-05-09T22:41:01.199Z,0.39
2023-05-09T22:43:36.794Z,0.36
2023-05-09T22:46:07.546Z,0.34
2023-05-09T22:48:35.767Z,0.32
2023-05-09T22:51:03.895Z,0.32
2023-05-09T22:53:32.917Z,0.32
2023-05-09T22:56:00.970Z,0.31
2023-05-09T22:58:29.009Z,0.34
2023-05-09T23:00:57.200Z,0.39
2023-05-09T23:03:25.511Z,0.44
2023-05-09T23:05:53.646Z,0.53
2023-05-09T23:08:21.674Z,0.64
2023-05-09T23:10:49.744Z,0.77
2023-05-09T23:13:17.888Z,0.87
2023-05-09T23:15:47.098Z,1.01
2023-05-09T23:18:15.197Z,1.20
2023-05-09T23:20:44.646Z,1.32
2023-05-09T23:23:12.646Z,1.39
2023-05-09T23:25:40.889Z,1.45
2023-05-09T23:28:08.966Z,1.52
2023-05-09T23:30:37.119Z,1.59
2023-05-09T23:33:05.314Z,1.64
2023-05-09T23:35:33.531Z,1.63
2023-05-09T23:38:01.776Z,1.59
2023-05-09T23:40:29.901Z,1.52
2023-05-09T23:42:58.066Z,1.45
2023-05-09T23:45:26.343Z,1.39
2023-05-09T23:47:54.465Z,1.29
2023-05-09T23:50:22.806Z,1.19
2023-05-09T23:52:51.285Z,1.08
2023-05-09T23:55:19.472Z,1.01
2023-05-09T23:57:47.624Z,0.97
